createdAt,value
2017-09-24T00:00:51.629Z,81.6
2017-09-24T00:01:53.171Z,81.7
2017-09-24T00:02:54.722Z,81.9
2017-09-24T00:03:56.300Z,82.3
2017-09-24T00:04:57.827Z,83.0
2017-09-24T00:05:59.326Z,82.6
2017-09-24T00:07:00.935Z,82.5
2017-09-24T00:08:02.512Z,83.0
2017-09-24T00:09:04.094Z,82.2
2017-09-24T00:10:05.613Z,82.0
2017-09-24T00:11:07.168Z,82.0
2017-09-24T00:12:08.694Z,82.0
2017-09-24T00:13:10.287Z,82.3
2017-09-24T00:14:11.855Z,82.2
2017-09-24T00:15:13.366Z,82.3
2017-09-24T00:16:14.940Z,82.2
2017-09-24T00:17:16.516Z,81.7
2017-09-24T00:18:18.069Z,82.2
2017-09-24T00:19:19.601Z,82.1
2017-09-24T00:20:21.137Z,82.2
2017-09-24T00:21:22.667Z,82.0
2017-09-24T00:22:24.206Z,81.7
2017-09-24T00:23:25.781Z,81.7
2017-09-24T00:24:27.374Z,81.9
2017-09-24T00:25:28.973Z,82.0
2017-09-24T00:26:30.515Z,82.0
2017-09-24T00:27:32.059Z,82.1
2017-09-24T00:28:33.600Z,82.2
2017-09-24T00:29:35.217Z,81.8
2017-09-24T00:30:36.766Z,81.8
2017-09-24T00:31:38.319Z,82.0
2017-09-24T00:32:39.872Z,81.9
2017-09-24T00:33:41.405Z,81.9
2017-09-24T00:34:42.950Z,82.1
2017-09-24T00:35:44.523Z,82.1
2017-09-24T00:36:46.023Z,81.8
2017-09-24T00:37:47.642Z,83.1
2017-09-24T00:38:49.188Z,82.4
2017-09-24T00:39:50.731Z,82.9
2017-09-24T00:40:52.277Z,83.6
2017-09-24T00:41:53.810Z,83.1
2017-09-24T00:42:55.362Z,83.9
2017-09-24T00:43:56.937Z,83.9
2017-09-24T00:44:58.555Z,84.1
2017-09-24T00:46:00.102Z,84.3
2017-09-24T00:47:01.728Z,84.3
2017-09-24T00:48:03.252Z,84.1
2017-09-24T00:49:04.867Z,84.7
2017-09-24T00:50:06.494Z,85.3
2017-09-24T00:51:07.952Z,85.5
2017-09-24T00:52:09.525Z,85.0
2017-09-24T00:53:11.068Z,85.2
2017-09-24T00:54:12.577Z,85.5
2017-09-24T00:55:14.171Z,85.5
2017-09-24T00:56:15.805Z,85.6
2017-09-24T00:57:17.339Z,85.7
2017-09-24T00:58:18.901Z,85.7
2017-09-24T00:59:20.428Z,85.6
2017-09-24T01:00:22.059Z,85.5
2017-09-24T01:01:23.549Z,85.6
2017-09-24T01:02:25.067Z,85.5
2017-09-24T01:03:26.598Z,85.5
2017-09-24T01:04:28.132Z,85.5
2017-09-24T01:05:29.663Z,85.5
2017-09-24T01:06:31.213Z,85.5
2017-09-24T01:07:32.858Z,85.5
2017-09-24T01:08:34.427Z,85.6
2017-09-24T01:09:36.017Z,85.8
2017-09-24T01:10:37.601Z,85.7
2017-09-24T01:11:39.257Z,85.7
2017-09-24T01:12:40.751Z,85.7
2017-09-24T01:13:42.334Z,85.8
2017-09-24T01:14:43.930Z,85.8
2017-09-24T01:15:45.427Z,85.7
2017-09-24T01:16:47.053Z,85.5
2017-09-24T01:17:48.553Z,85.8
2017-09-24T01:18:50.192Z,85.8
2017-09-24T01:19:51.671Z,86.1
2017-09-24T01:20:53.236Z,85.8
2017-09-24T01:21:54.795Z,86.2
2017-09-24T01:22:56.383Z,85.9
2017-09-24T01:23:57.957Z,86.0
2017-09-24T01:24:59.511Z,86.0
2017-09-24T01:26:01.012Z,85.4
2017-09-24T01:27:02.586Z,86.1
2017-09-24T01:28:04.102Z,86.0
2017-09-24T01:29:05.643Z,86.0
2017-09-24T01:30:07.195Z,85.8
2017-09-24T01:31:08.713Z,86.1
2017-09-24T01:32:10.365Z,85.9
2017-09-24T01:33:11.880Z,85.9
2017-09-24T01:34:13.378Z,85.8
2017-09-24T01:35:15.008Z,86.1
2017-09-24T01:36:16.640Z,85.7
2017-09-24T01:37:18.181Z,85.5
2017-09-24T01:38:19.715Z,85.7
2017-09-24T01:39:21.324Z,85.8
2017-09-24T01:40:22.860Z,85.8
2017-09-24T01:41:24.415Z,86.1
2017-09-24T01:42:25.982Z,85.8
2017-09-24T01:43:27.512Z,85.8
2017-09-24T01:44:29.008Z,85.8
2017-09-24T01:45:30.568Z,85.9
2017-09-24T01:46:32.485Z,85.5
2017-09-24T01:47:33.988Z,85.3
2017-09-24T01:48:35.572Z,85.5
2017-09-24T01:49:37.134Z,85.0
2017-09-24T01:50:38.663Z,85.0
2017-09-24T01:51:40.232Z,84.9
2017-09-24T01:52:41.764Z,84.9
2017-09-24T01:53:43.384Z,84.6
2017-09-24T01:54:44.924Z,84.2
2017-09-24T01:55:46.490Z,84.4
2017-09-24T01:56:47.994Z,84.4
2017-09-24T01:57:49.596Z,84.5
2017-09-24T01:58:51.406Z,83.9
2017-09-24T01:59:52.916Z,84.2
2017-09-24T02:00:54.502Z,83.1
2017-09-24T02:01:56.047Z,83.1
2017-09-24T02:02:57.593Z,83.1
2017-09-24T02:03:59.163Z,84.0
2017-09-24T02:05:00.703Z,83.9
2017-09-24T02:06:02.251Z,83.7
2017-09-24T02:07:03.742Z,84.1
2017-09-24T02:08:05.278Z,84.0
2017-09-24T02:09:06.839Z,84.3
2017-09-24T02:10:08.361Z,84.9
2017-09-24T02:11:09.916Z,84.3
2017-09-24T02:12:11.463Z,84.6
2017-09-24T02:13:12.980Z,84.8
2017-09-24T02:14:14.573Z,84.8
2017-09-24T02:15:16.111Z,84.8
2017-09-24T02:16:17.663Z,84.9
2017-09-24T02:17:19.244Z,84.7
2017-09-24T02:18:20.806Z,84.8
2017-09-24T02:19:22.357Z,84.8
2017-09-24T02:20:23.957Z,84.1
2017-09-24T02:21:25.545Z,84.1
2017-09-24T02:22:27.077Z,84.3
2017-09-24T02:23:28.658Z,84.4
2017-09-24T02:24:30.244Z,84.5
2017-09-24T02:25:31.821Z,84.4
2017-09-24T02:26:33.355Z,84.3
2017-09-24T02:27:34.988Z,84.3
2017-09-24T02:28:36.527Z,83.7
2017-09-24T02:29:38.067Z,84.3
2017-09-24T02:30:39.629Z,84.5
2017-09-24T02:31:41.193Z,84.3
2017-09-24T02:32:42.732Z,84.2
2017-09-24T02:33:44.238Z,84.5
2017-09-24T02:34:45.781Z,84.7
2017-09-24T02:35:47.305Z,84.7
2017-09-24T02:36:48.841Z,84.5
2017-09-24T02:37:50.382Z,84.4
2017-09-24T02:38:51.985Z,84.3
2017-09-24T02:39:53.609Z,84.4
2017-09-24T02:40:55.184Z,84.4
2017-09-24T02:41:56.718Z,84.5
2017-09-24T02:42:58.262Z,84.3
2017-09-24T02:43:59.809Z,84.8
2017-09-24T02:45:01.383Z,84.5
2017-09-24T02:46:02.933Z,84.8
2017-09-24T02:47:04.484Z,84.5
2017-09-24T02:48:06.056Z,83.7
2017-09-24T02:49:07.612Z,83.7
2017-09-24T02:50:09.166Z,83.8
2017-09-24T02:51:10.674Z,83.7
2017-09-24T02:52:12.238Z,83.6
2017-09-24T02:53:13.805Z,83.6
2017-09-24T02:54:15.328Z,83.6
2017-09-24T02:55:16.878Z,83.9
2017-09-24T02:56:18.454Z,83.5
2017-09-24T02:57:19.995Z,84.0
2017-09-24T02:58:21.523Z,83.7
2017-09-24T02:59:23.081Z,83.6
2017-09-24T03:00:24.579Z,83.8
2017-09-24T03:01:26.133Z,83.9
2017-09-24T03:02:27.739Z,83.3
2017-09-24T03:03:29.276Z,83.3
2017-09-24T03:04:30.793Z,83.2
2017-09-24T03:05:32.359Z,83.4
2017-09-24T03:06:33.925Z,83.4
2017-09-24T03:07:35.472Z,83.5
2017-09-24T03:08:36.990Z,83.5
2017-09-24T03:09:38.593Z,83.2
2017-09-24T03:10:40.157Z,83.7
2017-09-24T03:11:41.642Z,83.5
2017-09-24T03:12:43.210Z,83.3
2017-09-24T03:13:44.817Z,83.4
2017-09-24T03:14:46.349Z,83.5
2017-09-24T03:15:47.994Z,83.1
2017-09-24T03:16:49.515Z,83.5
2017-09-24T03:17:51.067Z,83.7
2017-09-24T03:18:52.620Z,83.5
2017-09-24T03:19:54.219Z,83.4
2017-09-24T03:20:55.759Z,83.8
2017-09-24T03:21:57.349Z,83.9
2017-09-24T03:22:58.903Z,84.1
2017-09-24T03:24:00.459Z,84.7
2017-09-24T03:25:02.054Z,84.1
2017-09-24T03:26:03.602Z,84.2
2017-09-24T03:27:05.110Z,84.3
2017-09-24T03:28:06.660Z,84.3
2017-09-24T03:29:08.246Z,84.3
2017-09-24T03:30:09.880Z,84.2
2017-09-24T03:31:11.427Z,84.2
2017-09-24T03:32:12.972Z,84.4
2017-09-24T03:33:14.545Z,84.4
2017-09-24T03:34:16.093Z,84.1
2017-09-24T03:35:17.630Z,83.9
2017-09-24T03:36:19.183Z,84.2
2017-09-24T03:37:20.731Z,83.2
2017-09-24T03:38:22.281Z,83.1
2017-09-24T03:39:23.841Z,83.3
2017-09-24T03:40:25.396Z,83.2
2017-09-24T03:41:26.948Z,83.4
2017-09-24T03:42:28.511Z,83.6
2017-09-24T03:43:30.071Z,83.6
2017-09-24T03:44:31.692Z,83.7
2017-09-24T03:45:33.259Z,83.9
2017-09-24T03:46:34.842Z,84.3
2017-09-24T03:47:36.396Z,84.2
2017-09-24T03:48:37.945Z,84.5
2017-09-24T03:49:39.504Z,84.3
2017-09-24T03:50:41.027Z,84.2
2017-09-24T03:51:42.532Z,84.1
2017-09-24T03:52:44.088Z,84.8
2017-09-24T03:53:45.665Z,84.8
2017-09-24T03:54:47.223Z,84.6
2017-09-24T03:55:48.827Z,84.9
2017-09-24T03:56:50.387Z,84.4
2017-09-24T03:57:51.952Z,84.2
2017-09-24T03:58:53.515Z,84.8
2017-09-24T03:59:55.068Z,84.7
2017-09-24T04:00:56.677Z,84.7
2017-09-24T04:01:58.258Z,84.7
2017-09-24T04:02:59.782Z,84.5
2017-09-24T04:04:01.313Z,84.9
2017-09-24T04:05:02.924Z,84.7
2017-09-24T04:06:04.511Z,84.8
2017-09-24T04:07:06.096Z,84.7
2017-09-24T04:08:07.702Z,84.7
2017-09-24T04:09:09.232Z,84.5
2017-09-24T04:10:10.769Z,84.3
2017-09-24T04:11:12.268Z,83.6
2017-09-24T04:12:13.827Z,83.7
2017-09-24T04:13:15.316Z,83.1
2017-09-24T04:14:16.784Z,83.3
2017-09-24T04:15:18.255Z,83.1
2017-09-24T04:16:19.718Z,83.0
2017-09-24T04:17:21.162Z,82.8
2017-09-24T04:18:22.609Z,83.2
2017-09-24T04:19:24.097Z,82.9
2017-09-24T04:20:25.536Z,82.6
2017-09-24T04:21:27.151Z,82.8
2017-09-24T04:22:28.764Z,82.3
2017-09-24T04:23:30.267Z,81.7
2017-09-24T04:24:31.804Z,81.9
2017-09-24T04:25:33.329Z,82.2
2017-09-24T04:26:34.870Z,82.0
2017-09-24T04:27:36.398Z,81.6
2017-09-24T04:28:37.988Z,82.0
2017-09-24T04:29:39.521Z,82.4
2017-09-24T04:30:41.026Z,82.7
2017-09-24T04:31:42.521Z,82.7
2017-09-24T04:32:44.065Z,82.6
2017-09-24T04:33:45.676Z,82.7
2017-09-24T04:34:47.189Z,82.9
2017-09-24T04:35:48.726Z,83.4
2017-09-24T04:36:50.249Z,83.5
2017-09-24T04:37:51.766Z,83.1
2017-09-24T04:38:53.291Z,84.1
2017-09-24T04:39:54.795Z,83.6
2017-09-24T04:40:56.330Z,83.8
2017-09-24T04:41:57.866Z,83.8
2017-09-24T04:42:59.426Z,83.5
2017-09-24T04:44:00.913Z,84.1
2017-09-24T04:45:02.570Z,83.9
2017-09-24T04:46:04.129Z,83.2
2017-09-24T04:47:05.638Z,83.7
2017-09-24T04:48:07.194Z,83.2
2017-09-24T04:49:08.703Z,83.4
2017-09-24T04:50:10.334Z,83.2
2017-09-24T04:51:11.979Z,82.5
2017-09-24T04:52:13.612Z,82.3
2017-09-24T04:53:15.226Z,82.5
2017-09-24T04:54:16.836Z,82.3
2017-09-24T04:55:18.456Z,82.7
2017-09-24T04:56:20.023Z,83.0
2017-09-24T04:57:21.657Z,83.3
2017-09-24T04:58:23.560Z,83.5
2017-09-24T04:59:25.024Z,83.1
2017-09-24T05:00:26.587Z,83.4
2017-09-24T05:01:28.209Z,83.1
2017-09-24T05:02:29.799Z,82.9
2017-09-24T05:03:31.323Z,82.4
2017-09-24T05:04:32.870Z,82.7
2017-09-24T05:05:34.357Z,81.6
2017-09-24T05:06:35.856Z,81.8
2017-09-24T05:07:37.379Z,81.9
2017-09-24T05:08:38.880Z,82.1
2017-09-24T05:09:40.401Z,81.9
2017-09-24T05:10:41.946Z,81.8
2017-09-24T05:11:43.453Z,82.1
2017-09-24T05:12:44.968Z,81.5
2017-09-24T05:13:46.486Z,82.0
2017-09-24T05:14:48.006Z,81.6
2017-09-24T05:15:49.524Z,81.9
2017-09-24T05:16:51.068Z,81.8
2017-09-24T05:17:52.653Z,81.7
2017-09-24T05:18:54.156Z,82.7
2017-09-24T05:19:55.696Z,82.7
2017-09-24T05:20:57.225Z,82.7
2017-09-24T05:21:58.766Z,82.4
2017-09-24T05:23:00.257Z,83.0
2017-09-24T05:24:01.754Z,82.9
2017-09-24T05:25:03.285Z,83.4
2017-09-24T05:26:04.790Z,83.9
2017-09-24T05:27:06.349Z,83.6
2017-09-24T05:28:07.920Z,83.5
2017-09-24T05:29:09.413Z,84.3
2017-09-24T05:30:10.950Z,84.0
2017-09-24T05:31:12.468Z,84.2
2017-09-24T05:32:14.006Z,83.6
2017-09-24T05:33:15.521Z,83.6
2017-09-24T05:34:17.117Z,84.0
2017-09-24T05:35:18.663Z,83.7
2017-09-24T05:36:20.160Z,83.7
2017-09-24T05:37:22.310Z,83.7
2017-09-24T05:38:23.845Z,83.2
2017-09-24T05:39:25.356Z,83.7
2017-09-24T05:40:26.887Z,83.7
2017-09-24T05:41:28.444Z,83.3
2017-09-24T05:42:29.974Z,83.5
2017-09-24T05:43:31.479Z,83.9
2017-09-24T05:44:33.008Z,83.4
2017-09-24T05:45:34.548Z,83.8
2017-09-24T05:46:36.060Z,83.5
2017-09-24T05:47:37.592Z,83.7
2017-09-24T05:48:39.120Z,84.2
2017-09-24T05:49:40.663Z,83.8
2017-09-24T05:50:42.236Z,84.3
2017-09-24T05:51:43.787Z,84.2
2017-09-24T05:52:45.394Z,84.2
2017-09-24T05:53:46.898Z,84.2
2017-09-24T05:54:48.415Z,84.3
2017-09-24T05:55:49.952Z,84.0
2017-09-24T05:56:51.481Z,84.1
2017-09-24T05:57:53.079Z,84.2
2017-09-24T05:58:54.624Z,83.6
2017-09-24T05:59:56.156Z,83.8
2017-09-24T06:00:57.683Z,84.0
2017-09-24T06:01:59.262Z,83.4
2017-09-24T06:03:00.807Z,83.0
2017-09-24T06:04:02.344Z,83.6
2017-09-24T06:05:03.884Z,83.5
2017-09-24T06:06:05.462Z,83.0
2017-09-24T06:07:06.998Z,82.7
2017-09-24T06:08:08.520Z,82.7
2017-09-24T06:09:10.104Z,82.7
2017-09-24T06:10:11.660Z,82.8
2017-09-24T06:11:13.187Z,82.5
2017-09-24T06:12:14.758Z,83.0
2017-09-24T06:13:16.274Z,82.8
2017-09-24T06:14:17.871Z,83.2
2017-09-24T06:15:19.387Z,83.3
2017-09-24T06:16:21.231Z,84.0
2017-09-24T06:17:22.786Z,83.5
2017-09-24T06:18:24.288Z,84.3
2017-09-24T06:19:25.817Z,84.2
2017-09-24T06:20:27.318Z,84.6
2017-09-24T06:21:28.843Z,84.7
2017-09-24T06:22:30.404Z,84.5
2017-09-24T06:23:31.934Z,84.5
2017-09-24T06:24:33.490Z,84.3
2017-09-24T06:25:34.985Z,84.5
2017-09-24T06:26:36.514Z,84.8
2017-09-24T06:27:38.025Z,84.5
2017-09-24T06:28:40.375Z,84.5
2017-09-24T06:29:41.864Z,84.5
2017-09-24T06:30:43.421Z,85.0
2017-09-24T06:31:44.951Z,85.2
2017-09-24T06:32:46.511Z,85.3
2017-09-24T06:33:48.028Z,85.5
2017-09-24T06:34:49.594Z,85.6
2017-09-24T06:35:51.103Z,85.4
2017-09-24T06:36:52.657Z,85.8
2017-09-24T06:37:54.152Z,85.7
2017-09-24T06:38:55.629Z,85.9
2017-09-24T06:39:57.101Z,85.7
2017-09-24T06:40:58.605Z,86.2
2017-09-24T06:42:00.081Z,86.0
2017-09-24T06:43:01.548Z,85.7
2017-09-24T06:44:03.022Z,86.1
2017-09-24T06:45:04.509Z,85.9
2017-09-24T06:46:05.976Z,86.3
2017-09-24T06:47:07.456Z,86.5
2017-09-24T06:48:08.957Z,86.3
2017-09-24T06:49:10.443Z,86.3
2017-09-24T06:50:11.990Z,86.8
2017-09-24T06:51:13.483Z,86.4
2017-09-24T06:52:14.968Z,86.4
2017-09-24T06:53:16.423Z,86.9
2017-09-24T06:54:17.912Z,86.7
2017-09-24T06:55:19.419Z,87.1
2017-09-24T06:56:20.915Z,86.9
2017-09-24T06:57:22.430Z,87.1
2017-09-24T06:58:23.889Z,87.1
2017-09-24T06:59:25.412Z,86.9
2017-09-24T07:00:26.886Z,87.0
2017-09-24T07:01:28.373Z,87.0
2017-09-24T07:02:29.866Z,87.2
2017-09-24T07:03:31.352Z,87.0
2017-09-24T07:04:32.853Z,86.9
2017-09-24T07:05:34.453Z,86.8
2017-09-24T07:06:35.928Z,86.9
2017-09-24T07:07:37.419Z,87.3
2017-09-24T07:08:38.978Z,86.9
2017-09-24T07:09:40.468Z,87.0
2017-09-24T07:10:41.965Z,87.8
2017-09-24T07:11:43.499Z,87.6
2017-09-24T07:12:44.995Z,87.7
2017-09-24T07:13:46.506Z,87.8
2017-09-24T07:14:47.981Z,87.4
2017-09-24T07:15:49.520Z,87.9
2017-09-24T07:16:50.989Z,87.4
2017-09-24T07:17:52.453Z,87.8
2017-09-24T07:18:53.941Z,87.4
2017-09-24T07:19:55.390Z,87.6
2017-09-24T07:20:56.845Z,87.6
2017-09-24T07:21:58.312Z,87.5
2017-09-24T07:22:59.819Z,87.2
2017-09-24T07:24:01.287Z,87.4
2017-09-24T07:25:02.893Z,87.4
2017-09-24T07:26:04.422Z,87.4
2017-09-24T07:27:06.875Z,87.4
2017-09-24T07:28:08.453Z,87.1
2017-09-24T07:29:10.012Z,87.2
2017-09-24T07:30:11.547Z,87.4
2017-09-24T07:31:13.102Z,87.6
2017-09-24T07:32:14.624Z,88.0
2017-09-24T07:33:16.157Z,87.8
2017-09-24T07:34:17.699Z,88.1
2017-09-24T07:35:19.207Z,87.8
2017-09-24T07:36:20.659Z,88.0
2017-09-24T07:37:22.096Z,88.1
2017-09-24T07:38:23.565Z,88.3
2017-09-24T07:39:25.096Z,88.1
2017-09-24T07:40:26.572Z,88.1
2017-09-24T07:41:28.057Z,88.2
2017-09-24T07:42:29.538Z,88.4
2017-09-24T07:43:31.002Z,88.6
2017-09-24T07:44:32.466Z,88.3
2017-09-24T07:45:33.961Z,88.7
2017-09-24T07:46:35.437Z,89.0
2017-09-24T07:47:36.921Z,88.7
2017-09-24T07:48:38.385Z,89.1
2017-09-24T07:49:39.863Z,89.0
2017-09-24T07:50:41.337Z,88.7
2017-09-24T07:51:42.833Z,88.6
2017-09-24T07:52:44.317Z,89.4
2017-09-24T07:53:45.778Z,89.6
2017-09-24T07:54:47.235Z,89.0
2017-09-24T07:55:48.704Z,89.1
2017-09-24T07:56:50.170Z,89.8
2017-09-24T07:57:51.651Z,89.7
2017-09-24T07:58:53.154Z,89.5
2017-09-24T07:59:54.631Z,89.9
2017-09-24T08:00:56.154Z,89.7
2017-09-24T08:01:57.683Z,89.7
2017-09-24T08:02:59.192Z,89.9
2017-09-24T08:04:00.682Z,90.1
2017-09-24T08:05:02.225Z,90.0
2017-09-24T08:06:03.685Z,90.5
2017-09-24T08:07:05.156Z,90.2
2017-09-24T08:08:06.596Z,90.2
2017-09-24T08:09:08.061Z,90.5
2017-09-24T08:10:09.542Z,90.6
2017-09-24T08:11:10.992Z,90.1
2017-09-24T08:12:12.442Z,90.6
2017-09-24T08:13:13.939Z,90.3
2017-09-24T08:14:15.415Z,90.3
2017-09-24T08:15:16.900Z,90.3
2017-09-24T08:16:18.353Z,90.3
2017-09-24T08:17:19.824Z,90.3
2017-09-24T08:18:21.307Z,90.2
2017-09-24T08:19:22.777Z,90.2
2017-09-24T08:20:24.264Z,90.6
2017-09-24T08:21:25.728Z,90.6
2017-09-24T08:22:27.158Z,90.5
2017-09-24T08:23:28.581Z,90.2
2017-09-24T08:24:30.034Z,90.2
2017-09-24T08:25:31.458Z,90.3
2017-09-24T08:26:32.900Z,90.3
2017-09-24T08:27:34.377Z,90.5
2017-09-24T08:28:35.806Z,90.3
2017-09-24T08:29:37.214Z,90.2
2017-09-24T08:30:38.668Z,90.3
2017-09-24T08:31:40.244Z,90.1
2017-09-24T08:32:41.742Z,90.2
2017-09-24T08:33:43.234Z,90.2
2017-09-24T08:34:44.738Z,90.3
2017-09-24T08:35:46.249Z,90.3
2017-09-24T08:36:47.779Z,90.5
2017-09-24T08:37:49.289Z,90.5
2017-09-24T08:38:50.827Z,90.3
2017-09-24T08:39:52.434Z,90.3
2017-09-24T08:40:54.003Z,90.6
2017-09-24T08:41:55.532Z,90.4
2017-09-24T08:42:57.097Z,90.2
2017-09-24T08:43:58.804Z,90.2
2017-09-24T08:45:00.618Z,90.6
2017-09-24T08:46:02.429Z,90.7
2017-09-24T08:47:04.185Z,90.5
2017-09-24T08:48:05.947Z,90.3
2017-09-24T08:49:07.670Z,90.1
2017-09-24T08:50:09.463Z,90.1
2017-09-24T08:51:11.217Z,90.2
2017-09-24T08:52:12.983Z,89.9
2017-09-24T08:53:14.752Z,89.7
2017-09-24T08:54:16.525Z,89.9
2017-09-24T08:55:18.287Z,89.7
2017-09-24T08:56:20.057Z,89.8
2017-09-24T08:57:21.822Z,90.0
2017-09-24T08:58:23.605Z,90.1
2017-09-24T08:59:25.424Z,90.0
2017-09-24T09:00:27.273Z,90.0
2017-09-24T09:01:29.599Z,89.5
2017-09-24T09:02:31.408Z,89.6
2017-09-24T09:03:33.209Z,89.0
2017-09-24T09:04:34.947Z,89.3
2017-09-24T09:05:36.723Z,89.6
2017-09-24T09:06:38.546Z,88.9
2017-09-24T09:07:40.314Z,88.9
2017-09-24T09:08:42.103Z,88.3
2017-09-24T09:09:43.889Z,88.8
2017-09-24T09:10:45.701Z,88.8
2017-09-24T09:11:47.520Z,88.3
2017-09-24T09:12:49.222Z,88.8
2017-09-24T09:13:51.041Z,88.3
2017-09-24T09:14:52.789Z,88.3
2017-09-24T09:15:54.626Z,88.3
2017-09-24T09:16:56.413Z,88.2
2017-09-24T09:17:58.198Z,88.3
2017-09-24T09:18:59.991Z,87.6
2017-09-24T09:20:01.806Z,88.4
2017-09-24T09:21:03.559Z,88.0
2017-09-24T09:22:05.320Z,88.2
2017-09-24T09:23:07.120Z,87.6
2017-09-24T09:24:08.882Z,86.9
2017-09-24T09:25:10.661Z,86.4
2017-09-24T09:26:12.400Z,86.4
2017-09-24T09:27:14.096Z,85.8
2017-09-24T09:28:16.659Z,86.3
2017-09-24T09:29:18.371Z,86.1
2017-09-24T09:30:20.145Z,86.0
2017-09-24T09:31:21.939Z,86.1
2017-09-24T09:32:23.730Z,85.8
2017-09-24T09:33:25.477Z,86.1
2017-09-24T09:34:27.328Z,86.1
2017-09-24T09:35:29.102Z,86.0
2017-09-24T09:36:30.881Z,85.8
2017-09-24T09:37:32.633Z,85.9
2017-09-24T09:38:34.400Z,85.9
2017-09-24T09:39:36.167Z,85.8
2017-09-24T09:40:37.723Z,86.1
2017-09-24T09:41:39.235Z,85.9
2017-09-24T09:42:40.753Z,85.4
2017-09-24T09:43:42.282Z,85.3
2017-09-24T09:44:43.835Z,85.4
2017-09-24T09:45:45.379Z,85.1
2017-09-24T09:46:46.871Z,84.9
2017-09-24T09:47:48.437Z,84.9
2017-09-24T09:48:49.990Z,85.0
2017-09-24T09:49:51.528Z,85.1
2017-09-24T09:50:53.050Z,84.8
2017-09-24T09:51:54.581Z,84.7
2017-09-24T09:52:56.108Z,84.7
2017-09-24T09:53:57.667Z,84.5
2017-09-24T09:54:59.178Z,84.2
2017-09-24T09:56:00.721Z,83.6
2017-09-24T09:57:02.272Z,83.9
2017-09-24T09:58:03.780Z,83.1
2017-09-24T09:59:05.302Z,83.3
2017-09-24T10:00:06.888Z,83.3
2017-09-24T10:01:08.366Z,83.3
2017-09-24T10:02:09.878Z,82.2
2017-09-24T10:03:12.379Z,82.3
2017-09-24T10:04:13.920Z,82.1
2017-09-24T10:05:15.448Z,82.1
2017-09-24T10:06:16.966Z,82.1
2017-09-24T10:07:18.475Z,83.2
2017-09-24T10:08:20.021Z,82.3
2017-09-24T10:09:21.562Z,81.8
2017-09-24T10:10:23.099Z,82.3
2017-09-24T10:11:24.637Z,83.3
2017-09-24T10:12:26.208Z,83.2
2017-09-24T10:13:27.729Z,82.9
2017-09-24T10:14:29.259Z,83.5
2017-09-24T10:15:30.793Z,82.7
2017-09-24T10:16:32.368Z,82.3
2017-09-24T10:17:33.916Z,82.4
2017-09-24T10:18:35.445Z,82.4
2017-09-24T10:19:36.978Z,82.4
2017-09-24T10:20:38.479Z,82.2
2017-09-24T10:21:40.182Z,81.4
2017-09-24T10:22:41.954Z,81.0
2017-09-24T10:23:43.722Z,80.4
2017-09-24T10:24:45.593Z,80.4
2017-09-24T10:25:47.345Z,80.7
2017-09-24T10:26:49.157Z,80.9
2017-09-24T10:27:50.843Z,80.9
2017-09-24T10:28:52.616Z,80.4
2017-09-24T10:29:54.413Z,79.7
2017-09-24T10:30:56.189Z,79.2
2017-09-24T10:31:58.063Z,78.8
2017-09-24T10:32:59.830Z,78.5
2017-09-24T10:34:01.615Z,78.4
2017-09-24T10:35:03.422Z,78.4
2017-09-24T10:36:05.140Z,78.0
2017-09-24T10:37:06.946Z,77.8
2017-09-24T10:38:08.721Z,77.9
2017-09-24T10:39:10.597Z,77.9
2017-09-24T10:40:12.351Z,77.8
2017-09-24T10:41:14.139Z,77.9
2017-09-24T10:42:15.881Z,78.0
2017-09-24T10:43:17.655Z,77.5
2017-09-24T10:44:19.464Z,77.2
2017-09-24T10:45:21.190Z,77.4
2017-09-24T10:46:22.945Z,77.4
2017-09-24T10:47:24.699Z,76.8
2017-09-24T10:48:26.474Z,76.2
2017-09-24T10:49:28.227Z,76.2
2017-09-24T10:50:29.996Z,75.7
2017-09-24T10:51:31.718Z,75.9
2017-09-24T10:52:33.518Z,76.4
2017-09-24T10:53:35.295Z,75.6
2017-09-24T10:54:37.043Z,75.3
2017-09-24T10:55:39.649Z,75.4
2017-09-24T10:56:41.456Z,75.5
2017-09-24T10:57:43.249Z,75.6
2017-09-24T10:58:45.048Z,75.5
2017-09-24T10:59:46.799Z,75.4
2017-09-24T11:00:48.552Z,75.3
2017-09-24T11:01:50.115Z,75.6
2017-09-24T11:02:51.673Z,75.3
2017-09-24T11:03:53.185Z,75.4
2017-09-24T11:04:54.698Z,75.7
2017-09-24T11:05:56.220Z,75.5
2017-09-24T11:06:57.767Z,74.9
2017-09-24T11:07:59.325Z,74.9
2017-09-24T11:09:00.842Z,74.8
2017-09-24T11:10:02.356Z,74.7
2017-09-24T11:11:03.894Z,74.3
2017-09-24T11:12:05.541Z,74.6
2017-09-24T11:13:07.214Z,74.5
2017-09-24T11:14:08.815Z,74.5
2017-09-24T11:15:10.374Z,74.8
2017-09-24T11:16:11.928Z,74.5
2017-09-24T11:17:13.462Z,74.6
2017-09-24T11:18:14.983Z,74.6
2017-09-24T11:19:16.743Z,73.7
2017-09-24T11:20:18.520Z,73.9
2017-09-24T11:21:20.085Z,74.1
2017-09-24T11:22:21.640Z,74.4
2017-09-24T11:23:23.225Z,74.1
2017-09-24T11:24:24.774Z,73.9
2017-09-24T11:25:26.335Z,73.4
2017-09-24T11:26:27.855Z,74.0
2017-09-24T11:27:29.429Z,72.9
2017-09-24T11:28:30.953Z,73.3
2017-09-24T11:29:32.500Z,73.0
2017-09-24T11:30:34.021Z,73.2
2017-09-24T11:31:35.606Z,73.2
2017-09-24T11:32:37.120Z,73.2
2017-09-24T11:33:38.740Z,73.0
2017-09-24T11:34:40.324Z,73.0
2017-09-24T11:35:41.899Z,72.8
2017-09-24T11:36:43.466Z,72.4
2017-09-24T11:37:45.077Z,72.4
2017-09-24T11:38:46.639Z,71.6
2017-09-24T11:39:48.161Z,71.5
2017-09-24T11:40:49.724Z,71.8
2017-09-24T11:41:51.305Z,71.7
2017-09-24T11:42:52.900Z,71.6
2017-09-24T11:43:54.466Z,71.1
2017-09-24T11:44:55.993Z,71.0
2017-09-24T11:45:57.592Z,70.1
2017-09-24T11:46:59.149Z,70.5
2017-09-24T11:48:00.704Z,70.1
2017-09-24T11:49:02.257Z,70.5
2017-09-24T11:50:03.798Z,70.4
2017-09-24T11:51:05.384Z,70.1
2017-09-24T11:52:06.895Z,70.2
2017-09-24T11:53:08.494Z,70.4
2017-09-24T11:54:10.033Z,69.7
2017-09-24T11:55:11.580Z,69.8
2017-09-24T11:56:13.151Z,69.8
2017-09-24T11:57:14.733Z,69.7
2017-09-24T11:58:16.288Z,70.5
2017-09-24T11:59:17.894Z,70.1
2017-09-24T12:00:19.441Z,69.9
2017-09-24T12:01:20.984Z,69.4
2017-09-24T12:02:22.531Z,69.4
2017-09-24T12:03:24.070Z,69.9
2017-09-24T12:04:25.613Z,70.1
2017-09-24T12:05:27.158Z,69.9
2017-09-24T12:06:28.712Z,69.8
2017-09-24T12:07:30.262Z,69.9
2017-09-24T12:08:32.090Z,69.8
2017-09-24T12:09:33.971Z,69.8
2017-09-24T12:10:35.490Z,69.6
2017-09-24T12:11:37.066Z,69.3
2017-09-24T12:12:38.590Z,69.8
2017-09-24T12:13:40.174Z,69.5
2017-09-24T12:14:41.751Z,69.4
2017-09-24T12:15:43.282Z,69.4
2017-09-24T12:16:44.812Z,68.5
2017-09-24T12:17:46.372Z,68.7
2017-09-24T12:18:47.921Z,68.9
2017-09-24T12:19:49.720Z,68.8
2017-09-24T12:20:51.286Z,68.5
2017-09-24T12:21:52.845Z,68.8
2017-09-24T12:22:54.374Z,68.2
2017-09-24T12:23:55.928Z,68.8
2017-09-24T12:24:57.508Z,68.3
2017-09-24T12:25:59.086Z,68.4
2017-09-24T12:27:00.597Z,68.2
2017-09-24T12:28:02.145Z,68.1
2017-09-24T12:29:03.715Z,67.6
2017-09-24T12:30:05.295Z,67.9
2017-09-24T12:31:06.852Z,68.0
2017-09-24T12:32:08.455Z,67.3
2017-09-24T12:33:10.055Z,67.2
2017-09-24T12:34:11.612Z,67.4
2017-09-24T12:35:13.234Z,67.1
2017-09-24T12:36:14.775Z,66.9
2017-09-24T12:37:16.361Z,67.2
2017-09-24T12:38:17.987Z,67.4
2017-09-24T12:39:19.632Z,67.3
2017-09-24T12:40:21.173Z,66.6
2017-09-24T12:41:22.743Z,66.1
2017-09-24T12:42:24.286Z,66.2
2017-09-24T12:43:25.871Z,66.0
2017-09-24T12:44:27.448Z,66.1
2017-09-24T12:45:28.987Z,66.4
2017-09-24T12:46:30.575Z,66.1
2017-09-24T12:47:32.104Z,66.1
2017-09-24T12:48:33.692Z,66.0
2017-09-24T12:49:35.304Z,66.0
2017-09-24T12:50:36.872Z,65.6
2017-09-24T12:51:38.417Z,65.2
2017-09-24T12:52:39.921Z,65.6
2017-09-24T12:53:41.464Z,64.9
2017-09-24T12:54:43.025Z,64.8
2017-09-24T12:55:44.692Z,65.0
2017-09-24T12:56:46.288Z,64.8
2017-09-24T12:57:47.842Z,65.0
2017-09-24T12:58:49.390Z,64.8
2017-09-24T12:59:50.916Z,65.1
2017-09-24T13:00:52.474Z,65.4
2017-09-24T13:01:54.029Z,65.3
2017-09-24T13:02:55.565Z,65.7
2017-09-24T13:03:57.167Z,65.4
2017-09-24T13:04:58.775Z,65.8
2017-09-24T13:06:00.369Z,65.7
2017-09-24T13:07:01.942Z,65.5
2017-09-24T13:08:03.493Z,65.2
2017-09-24T13:09:05.038Z,65.3
2017-09-24T13:10:06.556Z,65.6
2017-09-24T13:11:08.087Z,64.8
2017-09-24T13:12:09.663Z,65.0
2017-09-24T13:13:11.222Z,64.9
2017-09-24T13:14:12.734Z,64.6
2017-09-24T13:15:14.252Z,64.6
2017-09-24T13:16:15.829Z,64.9
2017-09-24T13:17:17.424Z,64.9
2017-09-24T13:18:18.987Z,65.2
2017-09-24T13:19:20.477Z,65.0
2017-09-24T13:20:22.074Z,65.4
2017-09-24T13:21:23.614Z,65.5
2017-09-24T13:22:25.182Z,65.3
2017-09-24T13:23:26.717Z,65.5
2017-09-24T13:24:28.245Z,65.3
2017-09-24T13:25:29.873Z,65.3
2017-09-24T13:26:31.421Z,65.6
2017-09-24T13:27:32.950Z,65.1
2017-09-24T13:28:34.577Z,65.2
2017-09-24T13:29:36.218Z,64.8
2017-09-24T13:30:37.707Z,64.9
2017-09-24T13:31:39.265Z,64.3
2017-09-24T13:32:41.147Z,64.6
2017-09-24T13:33:42.645Z,64.1
2017-09-24T13:34:44.201Z,64.3
2017-09-24T13:35:45.809Z,64.7
2017-09-24T13:36:47.332Z,64.0
2017-09-24T13:37:48.813Z,63.9
2017-09-24T13:38:50.338Z,64.0
2017-09-24T13:39:52.405Z,63.4